Time;durP1;ratioP1;P1;durP2;ratioP2;P2;SDS_P1;SDS_P2;PMS_P1;PMS_P2;Temp;Humidity;BMP_temperature;BMP_pressure;BME280_temperature;BME280_humidity;BME280_pressure;Samples;Min_cycle;Max_cycle;Signal;HPM_P1;HPM_P2
2022/08/01 00:02:03;;;;;;;14.20;8.60;;;;;;;;;;6306694;22;20218;-74
2022/08/01 00:04:29;;;;;;;12.30;9.37;;;;;;;;;;6305633;22;20360;-74
2022/08/01 00:06:54;;;;;;;11.50;9.20;;;;;;;;;;6305546;22;20361;-73
2022/08/01 00:09:19;;;;;;;11.90;9.02;;;;;;;;;;6301337;22;20374;-73
2022/08/01 00:11:45;;;;;;;12.50;8.93;;;;;;;;;;6301223;22;20221;-74
2022/08/01 00:14:10;;;;;;;13.13;9.02;;;;;;;;;;6301532;22;20500;-74
2022/08/01 00:16:35;;;;;;;12.10;9.20;;;;;;;;;;6306708;22;20147;-73
2022/08/01 00:19:01;;;;;;;12.20;10.07;;;;;;;;;;6306765;22;20155;-73
2022/08/01 00:21:26;;;;;;;12.60;9.90;;;;;;;;;;6301338;22;20174;-74
2022/08/01 00:23:51;;;;;;;12.13;9.35;;;;;;;;;;6304027;22;20144;-73
2022/08/01 00:26:16;;;;;;;12.55;9.52;;;;;;;;;;6300416;22;20147;-73
2022/08/01 00:28:41;;;;;;;14.55;9.73;;;;;;;;;;6299822;22;20516;-73
2022/08/01 00:31:07;;;;;;;14.90;9.48;;;;;;;;;;6299977;22;20163;-75
2022/08/01 00:33:32;;;;;;;13.23;9.98;;;;;;;;;;6301744;22;20363;-73
2022/08/01 00:35:57;;;;;;;10.77;9.50;;;;;;;;;;6302161;22;20175;-74
2022/08/01 00:38:22;;;;;;;12.65;9.85;;;;;;;;;;6305469;22;20413;-74
2022/08/01 00:40:48;;;;;;;14.87;9.37;;;;;;;;;;6305413;22;20788;-74
2022/08/01 00:43:14;;;;;;;12.10;9.38;;;;;;;;;;6305993;22;20433;-74
2022/08/01 00:45:39;;;;;;;13.70;9.70;;;;;;;;;;6303882;22;20222;-74
2022/08/01 00:48:04;;;;;;;12.30;9.50;;;;;;;;;;6302436;22;20183;-74
2022/08/01 00:50:29;;;;;;;13.10;9.57;;;;;;;;;;6300937;22;20186;-74
2022/08/01 00:52:55;;;;;;;14.63;9.80;;;;;;;;;;6302342;22;20174;-74
2022/08/01 00:55:20;;;;;;;13.63;10.35;;;;;;;;;;6303236;22;20236;-74
2022/08/01 00:57:46;;;;;;;16.35;10.10;;;;;;;;;;6301553;22;20144;-73
2022/08/01 01:00:11;;;;;;;15.23;10.32;;;;;;;;;;6299335;22;20487;-74
2022/08/01 01:02:36;;;;;;;14.82;10.63;;;;;;;;;;6292238;22;20171;-74
2022/08/01 01:05:02;;;;;;;18.37;11.40;;;;;;;;;;6302626;22;20148;-74
2022/08/01 01:07:33;;;;;;;16.63;10.95;;;;;;;;;;6305656;22;20436;-74
2022/08/01 01:10:00;;;;;;;15.90;10.90;;;;;;;;;;6303356;22;20164;-74
2022/08/01 01:12:37;;;;;;;14.50;10.57;;;;;;;;;;6304748;22;20611;-74
2022/08/01 01:15:06;;;;;;;15.70;10.75;;;;;;;;;;6304336;22;20625;-73
2022/08/01 01:17:35;;;;;;;14.60;10.05;;;;;;;;;;6305353;22;20498;-74
2022/08/01 01:20:02;;;;;;;14.95;10.48;;;;;;;;;;6305573;22;20163;-74
2022/08/01 01:22:36;;;;;;;12.75;10.00;;;;;;;;;;6305159;22;20148;-74
2022/08/01 01:25:09;;;;;;;15.90;9.75;;;;;;;;;;6304084;22;20183;-74
2022/08/01 01:27:51;;;;;;;16.30;11.90;;;;;;;;;;6305666;22;20614;-74
2022/08/01 01:30:16;;;;;;;14.98;10.05;;;;;;;;;;6305117;22;20602;-73
2022/08/01 01:32:44;;;;;;;13.38;9.45;;;;;;;;;;6305168;22;20219;-74
2022/08/01 01:35:13;;;;;;;16.88;11.00;;;;;;;;;;6304046;22;20435;-73
2022/08/01 01:37:38;;;;;;;15.32;10.68;;;;;;;;;;6306074;22;20202;-74
2022/08/01 01:40:05;;;;;;;15.05;10.27;;;;;;;;;;6304365;22;20167;-73
2022/08/01 01:42:30;;;;;;;15.93;10.45;;;;;;;;;;6304036;22;20200;-73
2022/08/01 01:44:56;;;;;;;17.60;11.27;;;;;;;;;;6303141;22;20605;-74
2022/08/01 01:47:22;;;;;;;19.20;11.13;;;;;;;;;;6277701;22;20281;-73
2022/08/01 01:49:48;;;;;;;17.40;12.15;;;;;;;;;;6304329;22;20167;-74
2022/08/01 01:52:15;;;;;;;19.30;12.13;;;;;;;;;;6304906;22;20150;-74
2022/08/01 01:54:44;;;;;;;14.90;11.45;;;;;;;;;;6304090;22;20165;-73
2022/08/01 01:57:11;;;;;;;17.27;11.25;;;;;;;;;;6276985;22;20234;-74
2022/08/01 01:59:40;;;;;;;18.23;11.75;;;;;;;;;;6304832;22;20162;-74
2022/08/01 02:02:06;;;;;;;20.45;12.18;;;;;;;;;;6303994;22;20147;-74
2022/08/01 02:04:32;;;;;;;22.08;11.85;;;;;;;;;;6303724;22;20174;-74
2022/08/01 02:06:58;;;;;;;21.50;11.55;;;;;;;;;;6305179;22;20140;-74
2022/08/01 02:09:25;;;;;;;21.45;11.43;;;;;;;;;;6304961;22;20201;-73
2022/08/01 02:11:51;;;;;;;16.77;10.23;;;;;;;;;;6303268;22;20235;-74
2022/08/01 02:14:19;;;;;;;18.67;11.02;;;;;;;;;;6301232;22;20569;-74
2022/08/01 02:16:48;;;;;;;16.50;10.60;;;;;;;;;;6303834;22;20140;-74
2022/08/01 02:19:14;;;;;;;18.23;11.75;;;;;;;;;;6304912;22;20234;-73
2022/08/01 02:21:57;;;;;;;17.33;11.80;;;;;;;;;;6303678;22;20175;-73
2022/08/01 02:24:40;;;;;;;18.50;11.85;;;;;;;;;;6302090;22;20147;-73
2022/08/01 02:27:07;;;;;;;16.55;10.27;;;;;;;;;;6304023;22;20234;-73
2022/08/01 02:29:49;;;;;;;16.27;10.43;;;;;;;;;;6303123;22;20144;-73
2022/08/01 02:32:20;;;;;;;16.83;10.57;;;;;;;;;;6304814;22;20244;-73
2022/08/01 02:34:46;;;;;;;15.70;9.57;;;;;;;;;;6305227;22;20140;-73
2022/08/01 02:37:11;;;;;;;15.82;10.23;;;;;;;;;;6303754;22;20140;-74
2022/08/01 02:39:38;;;;;;;14.70;9.60;;;;;;;;;;6304599;22;20148;-73
2022/08/01 02:42:05;;;;;;;14.95;8.60;;;;;;;;;;6303707;22;20361;-73
2022/08/01 02:44:32;;;;;;;14.82;9.65;;;;;;;;;;6303738;22;20155;-73
2022/08/01 02:47:02;;;;;;;13.75;8.00;;;;;;;;;;6303918;22;20590;-74
2022/08/01 02:49:27;;;;;;;15.30;10.10;;;;;;;;;;6304416;22;20144;-73
2022/08/01 02:51:54;;;;;;;14.38;8.77;;;;;;;;;;6304089;22;20240;-73
2022/08/01 02:54:21;;;;;;;14.32;8.52;;;;;;;;;;6304001;22;20152;-74
2022/08/01 02:56:46;;;;;;;12.80;7.90;;;;;;;;;;6304725;22;20655;-73
2022/08/01 02:59:14;;;;;;;14.63;8.77;;;;;;;;;;6302418;22;20165;-74
2022/08/01 03:01:39;;;;;;;13.35;8.82;;;;;;;;;;6275722;22;20172;-73
2022/08/01 03:04:05;;;;;;;13.95;8.25;;;;;;;;;;6304002;22;20279;-73
2022/08/01 03:06:31;;;;;;;9.95;7.88;;;;;;;;;;6303551;22;20589;-74
2022/08/01 03:08:57;;;;;;;12.40;7.43;;;;;;;;;;6305278;22;20171;-73
2022/08/01 03:11:23;;;;;;;14.10;7.82;;;;;;;;;;6306176;22;20241;-74
2022/08/01 03:13:50;;;;;;;11.93;7.03;;;;;;;;;;6304236;22;20143;-73
2022/08/01 03:16:15;;;;;;;9.88;6.75;;;;;;;;;;6305913;22;20167;-73
2022/08/01 03:18:41;;;;;;;9.77;7.22;;;;;;;;;;6304297;22;20144;-74
2022/08/01 03:21:08;;;;;;;8.25;6.75;;;;;;;;;;6304512;22;20170;-75
2022/08/01 03:23:35;;;;;;;10.38;6.75;;;;;;;;;;6305643;22;20147;-73
2022/08/01 03:26:01;;;;;;;8.60;6.43;;;;;;;;;;6305147;22;20159;-73
2022/08/01 03:28:27;;;;;;;8.95;6.80;;;;;;;;;;6304196;22;20258;-72
2022/08/01 03:30:52;;;;;;;9.65;6.30;;;;;;;;;;6305466;22;20187;-73
2022/08/01 03:33:18;;;;;;;11.13;7.43;;;;;;;;;;6305806;22;20144;-73
2022/08/01 03:35:46;;;;;;;9.68;6.55;;;;;;;;;;6304482;22;20201;-72
2022/08/01 03:38:13;;;;;;;11.10;7.53;;;;;;;;;;6278503;22;20217;-73
2022/08/01 03:40:40;;;;;;;10.23;5.90;;;;;;;;;;6305720;22;20164;-73
2022/08/01 03:43:07;;;;;;;8.80;6.10;;;;;;;;;;6278802;22;20155;-73
2022/08/01 03:45:37;;;;;;;7.22;6.22;;;;;;;;;;6305553;22;20147;-73
2022/08/01 03:48:05;;;;;;;7.60;5.57;;;;;;;;;;6304948;22;20168;-74
2022/08/01 03:50:33;;;;;;;8.38;5.85;;;;;;;;;;6304769;22;20167;-74
2022/08/01 03:52:59;;;;;;;8.43;6.38;;;;;;;;;;6303245;22;20519;-73
2022/08/01 03:55:25;;;;;;;7.93;5.78;;;;;;;;;;6306757;22;20150;-73
2022/08/01 03:57:50;;;;;;;6.57;5.70;;;;;;;;;;6304930;22;20231;-73
2022/08/01 04:00:18;;;;;;;8.48;6.45;;;;;;;;;;6305808;22;20175;-73
2022/08/01 04:02:44;;;;;;;7.75;5.30;;;;;;;;;;6301630;22;20159;-73
2022/08/01 04:05:10;;;;;;;7.57;5.47;;;;;;;;;;6305329;22;20155;-73
2022/08/01 04:07:36;;;;;;;6.35;5.18;;;;;;;;;;6304331;22;20172;-73
2022/08/01 04:10:01;;;;;;;9.82;5.05;;;;;;;;;;6276762;22;20178;-74
2022/08/01 04:12:26;;;;;;;7.47;5.55;;;;;;;;;;6305282;22;20140;-73
2022/08/01 04:14:51;;;;;;;10.10;5.47;;;;;;;;;;6305700;22;20144;-74
2022/08/01 04:17:17;;;;;;;14.00;6.53;;;;;;;;;;6304899;22;20144;-74
2022/08/01 04:19:42;;;;;;;7.90;5.90;;;;;;;;;;6304946;22;20494;-73
2022/08/01 04:22:09;;;;;;;8.75;5.18;;;;;;;;;;6304948;22;20144;-73
2022/08/01 04:24:35;;;;;;;12.15;6.75;;;;;;;;;;6305089;22;20468;-73
2022/08/01 04:27:01;;;;;;;6.80;4.97;;;;;;;;;;6305852;22;20148;-73
2022/08/01 04:29:27;;;;;;;9.05;5.53;;;;;;;;;;6304324;22;20226;-73
2022/08/01 04:31:54;;;;;;;5.38;4.55;;;;;;;;;;6305825;22;20163;-73
2022/08/01 04:34:21;;;;;;;14.85;5.75;;;;;;;;;;6305085;22;20234;-73
2022/08/01 04:36:47;;;;;;;7.72;4.93;;;;;;;;;;6304753;22;20151;-73
2022/08/01 04:39:13;;;;;;;6.03;4.63;;;;;;;;;;6303955;22;20147;-73
2022/08/01 04:41:39;;;;;;;7.47;5.22;;;;;;;;;;6305575;22;20514;-73
2022/08/01 04:44:05;;;;;;;7.05;5.38;;;;;;;;;;6305355;22;20167;-73
2022/08/01 04:46:31;;;;;;;7.65;4.90;;;;;;;;;;6304932;22;20144;-73
2022/08/01 04:48:57;;;;;;;6.32;4.82;;;;;;;;;;6304664;22;20175;-72
2022/08/01 04:51:22;;;;;;;6.75;5.35;;;;;;;;;;6304690;22;20274;-72
2022/08/01 04:53:48;;;;;;;6.30;5.03;;;;;;;;;;6278444;22;20152;-73
2022/08/01 04:56:13;;;;;;;5.07;4.30;;;;;;;;;;6303929;22;20140;-73
2022/08/01 04:58:40;;;;;;;6.68;5.18;;;;;;;;;;6303616;22;20148;-73
2022/08/01 05:01:05;;;;;;;6.85;4.70;;;;;;;;;;6304634;22;20614;-72
2022/08/01 05:03:30;;;;;;;5.97;5.22;;;;;;;;;;6305200;22;20158;-72
2022/08/01 05:05:55;;;;;;;5.93;4.90;;;;;;;;;;6305980;22;20244;-73
2022/08/01 05:08:21;;;;;;;6.47;4.60;;;;;;;;;;6304316;22;20411;-73
2022/08/01 05:10:46;;;;;;;6.57;4.75;;;;;;;;;;6304251;22;20516;-73
2022/08/01 05:13:11;;;;;;;7.13;5.10;;;;;;;;;;6303017;22;20144;-73
2022/08/01 05:15:36;;;;;;;4.97;4.50;;;;;;;;;;6303478;22;20151;-73
2022/08/01 05:18:01;;;;;;;5.53;4.97;;;;;;;;;;6305037;22;20444;-73
2022/08/01 05:20:27;;;;;;;7.28;4.95;;;;;;;;;;6304965;22;20694;-73
2022/08/01 05:22:52;;;;;;;8.27;5.20;;;;;;;;;;6277244;22;20265;-74
2022/08/01 05:25:17;;;;;;;7.10;5.13;;;;;;;;;;6304298;22;20368;-73
2022/08/01 05:27:42;;;;;;;6.85;4.97;;;;;;;;;;6275180;22;20452;-73
2022/08/01 05:30:08;;;;;;;7.20;5.77;;;;;;;;;;6305393;22;20172;-73
2022/08/01 05:32:33;;;;;;;9.07;5.30;;;;;;;;;;6304228;22;20367;-73
2022/08/01 05:34:59;;;;;;;8.02;5.75;;;;;;;;;;6276425;22;20147;-74
2022/08/01 05:37:24;;;;;;;8.88;5.95;;;;;;;;;;6277393;22;20625;-73
2022/08/01 05:39:49;;;;;;;5.45;4.95;;;;;;;;;;6304914;22;20620;-73
2022/08/01 05:42:15;;;;;;;5.00;4.50;;;;;;;;;;6303531;22;20167;-73
2022/08/01 05:44:40;;;;;;;6.05;4.22;;;;;;;;;;6276784;22;20830;-73
2022/08/01 05:47:05;;;;;;;5.20;4.50;;;;;;;;;;6305063;22;20144;-74
2022/08/01 05:49:30;;;;;;;5.57;4.50;;;;;;;;;;6303902;22;20388;-73
2022/08/01 05:51:55;;;;;;;4.17;3.50;;;;;;;;;;6305136;22;20160;-73
2022/08/01 05:54:21;;;;;;;5.60;3.33;;;;;;;;;;6277079;22;20369;-73
2022/08/01 05:56:46;;;;;;;3.83;3.43;;;;;;;;;;6304760;22;20144;-73
2022/08/01 05:59:11;;;;;;;3.87;2.70;;;;;;;;;;6275978;22;20452;-73
2022/08/01 06:01:36;;;;;;;6.67;3.00;;;;;;;;;;6304666;22;20758;-73
2022/08/01 06:04:01;;;;;;;3.70;2.63;;;;;;;;;;6304209;22;20371;-73
2022/08/01 06:06:27;;;;;;;3.47;2.63;;;;;;;;;;6304764;22;20420;-73
2022/08/01 06:08:52;;;;;;;2.65;2.30;;;;;;;;;;6303221;22;20692;-72
2022/08/01 06:11:17;;;;;;;2.50;2.30;;;;;;;;;;6303368;22;20480;-72
2022/08/01 06:13:42;;;;;;;3.75;2.30;;;;;;;;;;6304120;22;20357;-72
2022/08/01 06:16:07;;;;;;;4.23;2.60;;;;;;;;;;6305170;22;20147;-72
2022/08/01 06:18:32;;;;;;;2.85;2.30;;;;;;;;;;6304287;22;20360;-72
2022/08/01 06:20:58;;;;;;;2.67;2.20;;;;;;;;;;6276965;22;20751;-72
2022/08/01 06:23:23;;;;;;;3.33;2.07;;;;;;;;;;6303889;22;20369;-72
2022/08/01 06:25:51;;;;;;;4.30;2.60;;;;;;;;;;6304962;22;20364;-72
2022/08/01 06:28:16;;;;;;;3.58;2.20;;;;;;;;;;6303537;22;20808;-73
2022/08/01 06:30:41;;;;;;;2.80;2.33;;;;;;;;;;6304304;22;20164;-72
2022/08/01 06:33:08;;;;;;;3.72;2.67;;;;;;;;;;6304648;22;20357;-72
2022/08/01 06:35:33;;;;;;;4.55;3.10;;;;;;;;;;6304733;22;20140;-73
2022/08/01 06:37:58;;;;;;;3.78;2.20;;;;;;;;;;6303490;22;20154;-72
2022/08/01 06:40:23;;;;;;;2.67;2.13;;;;;;;;;;6304278;22;20255;-73
2022/08/01 06:42:49;;;;;;;3.00;2.08;;;;;;;;;;6302613;22;20745;-73
2022/08/01 06:45:14;;;;;;;4.10;2.33;;;;;;;;;;6303089;22;20660;-73
2022/08/01 06:47:40;;;;;;;2.90;2.17;;;;;;;;;;6275061;22;20179;-73
2022/08/01 06:50:05;;;;;;;4.80;2.30;;;;;;;;;;6303470;22;20163;-73
2022/08/01 06:52:31;;;;;;;4.68;2.70;;;;;;;;;;6303838;22;20177;-73
2022/08/01 06:54:56;;;;;;;5.10;2.30;;;;;;;;;;6303301;22;20178;-73
2022/08/01 06:57:21;;;;;;;6.70;2.33;;;;;;;;;;6303950;22;20216;-73
2022/08/01 06:59:46;;;;;;;4.85;2.42;;;;;;;;;;6275075;22;20850;-73
2022/08/01 07:02:12;;;;;;;4.63;2.47;;;;;;;;;;6299751;22;20144;-74
2022/08/01 07:04:37;;;;;;;2.88;2.10;;;;;;;;;;6298511;22;20371;-73
2022/08/01 07:07:02;;;;;;;5.97;2.75;;;;;;;;;;6298956;22;20147;-73
2022/08/01 07:09:27;;;;;;;5.35;2.45;;;;;;;;;;6299587;22;20622;-73
2022/08/01 07:11:53;;;;;;;6.32;2.70;;;;;;;;;;6298951;22;20186;-73
2022/08/01 07:14:19;;;;;;;9.82;2.92;;;;;;;;;;6299981;22;20229;-73
2022/08/01 07:16:44;;;;;;;6.50;2.70;;;;;;;;;;6299310;22;20197;-73
2022/08/01 07:19:10;;;;;;;10.25;3.60;;;;;;;;;;6302415;22;20144;-73
2022/08/01 07:21:35;;;;;;;10.15;2.80;;;;;;;;;;6304475;22;20614;-73
2022/08/01 07:24:00;;;;;;;11.18;3.05;;;;;;;;;;6304168;22;20135;-73
2022/08/01 07:26:26;;;;;;;13.03;3.50;;;;;;;;;;6299432;22;20159;-72
2022/08/01 07:28:51;;;;;;;9.90;2.83;;;;;;;;;;6298491;22;20408;-73
2022/08/01 07:31:16;;;;;;;7.32;2.78;;;;;;;;;;6298964;22;20171;-73
2022/08/01 07:33:42;;;;;;;12.00;2.85;;;;;;;;;;6304885;22;20197;-73
2022/08/01 07:36:07;;;;;;;6.67;3.10;;;;;;;;;;6301237;22;20156;-73
2022/08/01 07:38:32;;;;;;;8.23;2.80;;;;;;;;;;6298458;22;20699;-74
2022/08/01 07:40:57;;;;;;;8.40;3.00;;;;;;;;;;6299065;22;20380;-74
2022/08/01 07:43:22;;;;;;;11.20;3.17;;;;;;;;;;6298309;22;20469;-74
2022/08/01 07:45:48;;;;;;;10.63;2.93;;;;;;;;;;6298008;22;20214;-74
2022/08/01 07:48:13;;;;;;;4.65;2.30;;;;;;;;;;6301131;22;20408;-73
2022/08/01 07:50:38;;;;;;;11.60;3.60;;;;;;;;;;6302871;22;20176;-73
2022/08/01 07:53:04;;;;;;;7.03;2.67;;;;;;;;;;6299187;22;20753;-73
2022/08/01 07:55:29;;;;;;;8.40;2.85;;;;;;;;;;6292469;22;20742;-73
2022/08/01 07:57:54;;;;;;;8.73;2.88;;;;;;;;;;6301445;22;20143;-70
2022/08/01 08:00:19;;;;;;;8.90;2.92;;;;;;;;;;6301693;22;20171;-71
2022/08/01 08:02:44;;;;;;;5.90;2.53;;;;;;;;;;6301143;22;20148;-72
2022/08/01 08:05:10;;;;;;;7.00;2.00;;;;;;;;;;6305263;22;20387;-72
2022/08/01 08:07:35;;;;;;;9.80;3.05;;;;;;;;;;6278135;22;20415;-72
2022/08/01 08:10:01;;;;;;;7.75;2.00;;;;;;;;;;6302935;22;20160;-72
2022/08/01 08:12:26;;;;;;;5.05;2.25;;;;;;;;;;6304170;22;20144;-72
2022/08/01 08:14:51;;;;;;;5.22;2.10;;;;;;;;;;6305034;22;20144;-72
2022/08/01 08:17:16;;;;;;;5.28;1.98;;;;;;;;;;6303929;22;20166;-71
2022/08/01 08:19:42;;;;;;;6.10;1.80;;;;;;;;;;6305911;22;20586;-71
2022/08/01 08:22:07;;;;;;;6.57;1.90;;;;;;;;;;6304491;22;20147;-71
2022/08/01 08:24:33;;;;;;;7.25;1.85;;;;;;;;;;6305394;22;20140;-71
2022/08/01 08:26:58;;;;;;;5.40;2.10;;;;;;;;;;6305264;22;20534;-71
2022/08/01 08:29:25;;;;;;;4.60;1.63;;;;;;;;;;6303204;22;20179;-71
2022/08/01 08:31:51;;;;;;;8.40;2.42;;;;;;;;;;6275446;22;20502;-71
2022/08/01 08:34:16;;;;;;;6.80;2.05;;;;;;;;;;6305515;22;20160;-71
2022/08/01 08:36:41;;;;;;;6.47;1.63;;;;;;;;;;6306599;22;20602;-71
2022/08/01 08:39:07;;;;;;;7.07;2.03;;;;;;;;;;6303663;22;20285;-71
2022/08/01 08:41:33;;;;;;;8.75;1.75;;;;;;;;;;6303370;22;20253;-71
2022/08/01 08:43:59;;;;;;;5.78;1.88;;;;;;;;;;6305666;22;20187;-71
2022/08/01 08:46:26;;;;;;;5.95;1.70;;;;;;;;;;6277088;22;20230;-71
2022/08/01 08:48:51;;;;;;;8.75;2.08;;;;;;;;;;6305259;22;20201;-71
2022/08/01 08:51:17;;;;;;;6.25;2.00;;;;;;;;;;6305156;22;20649;-71
2022/08/01 08:53:44;;;;;;;6.28;1.48;;;;;;;;;;6278373;22;20152;-71
2022/08/01 08:56:11;;;;;;;4.45;1.58;;;;;;;;;;6277879;22;20179;-71
2022/08/01 08:58:38;;;;;;;5.32;1.73;;;;;;;;;;6305863;22;20501;-71
2022/08/01 09:01:08;;;;;;;2.85;1.20;;;;;;;;;;6303044;22;20164;-72
2022/08/01 09:03:33;;;;;;;5.20;1.48;;;;;;;;;;6305572;22;20148;-71
2022/08/01 09:05:58;;;;;;;4.50;1.70;;;;;;;;;;6304355;22;20222;-72
2022/08/01 09:08:24;;;;;;;9.67;3.60;;;;;;;;;;6277855;22;20171;-72
2022/08/01 09:10:49;;;;;;;6.32;1.52;;;;;;;;;;6304489;22;20381;-71
2022/08/01 09:13:14;;;;;;;4.30;1.60;;;;;;;;;;6303363;22;20148;-71
2022/08/01 09:15:39;;;;;;;6.53;2.13;;;;;;;;;;6304881;22;20147;-70
2022/08/01 09:18:05;;;;;;;6.13;1.60;;;;;;;;;;6304578;22;20500;-71
2022/08/01 09:20:30;;;;;;;4.20;1.50;;;;;;;;;;6304474;22;20217;-71
2022/08/01 09:22:56;;;;;;;3.70;1.10;;;;;;;;;;6305137;22;20147;-71
2022/08/01 09:25:21;;;;;;;6.22;1.60;;;;;;;;;;6304816;22;20215;-72
2022/08/01 09:27:46;;;;;;;5.85;1.77;;;;;;;;;;6305774;22;20622;-72
2022/08/01 09:30:15;;;;;;;3.10;1.17;;;;;;;;;;6302200;22;20168;-72
2022/08/01 09:32:54;;;;;;;2.72;0.90;;;;;;;;;;6277400;22;20601;-71
2022/08/01 09:35:26;;;;;;;4.15;1.02;;;;;;;;;;6305547;22;20146;-72
2022/08/01 09:37:51;;;;;;;3.10;1.20;;;;;;;;;;6303884;22;20148;-71
2022/08/01 09:40:16;;;;;;;4.30;1.58;;;;;;;;;;6305413;22;20164;-72
2022/08/01 09:42:41;;;;;;;4.57;1.20;;;;;;;;;;6303803;22;20144;-71
2022/08/01 09:45:07;;;;;;;3.67;1.27;;;;;;;;;;6305937;22;20395;-72
2022/08/01 09:47:39;;;;;;;4.28;1.35;;;;;;;;;;6276500;22;21045;-71
2022/08/01 09:50:04;;;;;;;3.97;1.40;;;;;;;;;;6304391;22;20626;-72
2022/08/01 09:52:29;;;;;;;5.93;1.70;;;;;;;;;;6303779;22;20144;-71
2022/08/01 09:54:56;;;;;;;6.53;1.57;;;;;;;;;;6304224;22;20200;-71
2022/08/01 09:57:22;;;;;;;5.60;1.33;;;;;;;;;;6304310;22;20828;-72
2022/08/01 09:59:52;;;;;;;4.32;1.38;;;;;;;;;;6304360;22;20150;-72
2022/08/01 10:02:31;;;;;;;7.15;1.55;;;;;;;;;;6304088;22;20173;-71
2022/08/01 10:04:56;;;;;;;5.97;1.27;;;;;;;;;;6302348;22;20202;-72
2022/08/01 10:07:22;;;;;;;5.20;1.55;;;;;;;;;;6302405;22;20148;-71
2022/08/01 10:09:47;;;;;;;5.97;1.90;;;;;;;;;;6278244;22;20197;-71
2022/08/01 10:12:14;;;;;;;5.30;1.42;;;;;;;;;;6275290;22;20155;-72
2022/08/01 10:14:40;;;;;;;6.93;1.92;;;;;;;;;;6304524;22;20375;-72
2022/08/01 10:17:07;;;;;;;4.75;1.98;;;;;;;;;;6275878;22;20571;-72
2022/08/01 10:19:34;;;;;;;4.93;1.27;;;;;;;;;;6304202;22;20139;-71
2022/08/01 10:22:00;;;;;;;3.70;1.13;;;;;;;;;;6303523;22;20535;-72
2022/08/01 10:24:26;;;;;;;4.63;1.30;;;;;;;;;;6304123;22;20163;-72
2022/08/01 10:26:54;;;;;;;4.45;1.50;;;;;;;;;;6303389;22;20523;-72
2022/08/01 10:29:20;;;;;;;5.25;1.60;;;;;;;;;;6304060;22;20171;-72
2022/08/01 10:31:48;;;;;;;5.93;1.60;;;;;;;;;;6303480;22;20171;-72
2022/08/01 10:34:18;;;;;;;5.60;1.30;;;;;;;;;;6304818;22;20151;-71
2022/08/01 10:36:45;;;;;;;6.57;1.20;;;;;;;;;;6304538;22;20152;-71
2022/08/01 10:39:10;;;;;;;5.07;1.20;;;;;;;;;;6305417;22;20147;-71
2022/08/01 10:41:36;;;;;;;4.43;1.42;;;;;;;;;;6303955;22;20159;-72
2022/08/01 10:44:02;;;;;;;6.80;1.50;;;;;;;;;;6276816;22;20173;-71
2022/08/01 10:46:30;;;;;;;6.55;2.15;;;;;;;;;;6302044;22;20159;-71
2022/08/01 10:48:58;;;;;;;3.88;1.35;;;;;;;;;;6304600;22;20515;-72
2022/08/01 10:51:23;;;;;;;6.07;1.45;;;;;;;;;;6302643;22;20163;-72
2022/08/01 10:53:53;;;;;;;5.20;2.40;;;;;;;;;;6304263;22;20217;-71
2022/08/01 10:56:18;;;;;;;9.88;2.53;;;;;;;;;;6304817;22;20144;-70
2022/08/01 10:58:44;;;;;;;9.18;1.92;;;;;;;;;;6304333;22;20169;-71
2022/08/01 11:01:12;;;;;;;4.97;1.55;;;;;;;;;;6303496;22;20172;-71
2022/08/01 11:03:37;;;;;;;6.35;1.63;;;;;;;;;;6303981;22;20148;-71
2022/08/01 11:06:03;;;;;;;4.83;1.37;;;;;;;;;;6276904;22;20152;-71
2022/08/01 11:08:30;;;;;;;5.43;1.40;;;;;;;;;;6304997;22;20522;-71
2022/08/01 11:11:02;;;;;;;6.60;1.20;;;;;;;;;;6303902;22;20637;-71
2022/08/01 11:14:11;;;;;;;4.20;1.25;;;;;;;;;;6276587;22;20194;-70
2022/08/01 11:16:37;;;;;;;6.13;1.70;;;;;;;;;;6178695;23;20159;-71
2022/08/01 11:19:03;;;;;;;3.58;1.70;;;;;;;;;;6284876;22;20245;-71
2022/08/01 11:21:47;;;;;;;7.45;1.77;;;;;;;;;;6303815;22;20168;-71
2022/08/01 11:24:12;;;;;;;4.72;1.45;;;;;;;;;;6303385;22;20147;-71
2022/08/01 11:26:37;;;;;;;5.00;2.20;;;;;;;;;;6304487;22;20148;-70
2022/08/01 11:29:10;;;;;;;3.53;1.30;;;;;;;;;;6305023;22;20408;-70
2022/08/01 11:31:35;;;;;;;4.32;1.60;;;;;;;;;;6309475;22;20217;-71
2022/08/01 11:34:01;;;;;;;6.40;1.50;;;;;;;;;;6309282;22;20219;-70
2022/08/01 11:36:26;;;;;;;4.75;1.70;;;;;;;;;;6308794;22;20602;-71
2022/08/01 11:38:57;;;;;;;3.83;1.40;;;;;;;;;;6309338;22;20242;-72
2022/08/01 11:41:23;;;;;;;4.90;1.48;;;;;;;;;;6307964;22;20170;-71
2022/08/01 11:43:55;;;;;;;5.90;1.58;;;;;;;;;;6309527;22;20159;-69
2022/08/01 11:46:41;;;;;;;4.88;1.70;;;;;;;;;;6308532;22;20468;-70
2022/08/01 11:49:25;;;;;;;4.00;1.42;;;;;;;;;;6285968;22;20179;-71
2022/08/01 11:51:56;;;;;;;8.85;2.33;;;;;;;;;;6307166;22;20572;-71
2022/08/01 11:54:24;;;;;;;5.68;1.60;;;;;;;;;;6308040;22;20598;-71
2022/08/01 11:56:50;;;;;;;9.32;1.77;;;;;;;;;;6307769;22;20139;-71
2022/08/01 11:59:15;;;;;;;4.10;1.17;;;;;;;;;;6308421;22;20170;-71
2022/08/01 12:01:41;;;;;;;3.88;1.50;;;;;;;;;;6307109;22;20206;-71
2022/08/01 12:04:06;;;;;;;6.38;1.77;;;;;;;;;;6308180;22;20230;-71
2022/08/01 12:06:31;;;;;;;4.40;1.35;;;;;;;;;;6281278;22;20456;-71
2022/08/01 12:09:14;;;;;;;3.80;1.10;;;;;;;;;;6306240;22;20202;-70
2022/08/01 12:11:39;;;;;;;4.07;1.02;;;;;;;;;;6307137;22;20396;-71
2022/08/01 12:14:06;;;;;;;2.63;0.90;;;;;;;;;;6308964;22;20579;-71
2022/08/01 12:16:32;;;;;;;5.53;1.27;;;;;;;;;;6306574;22;20218;-71
2022/08/01 12:18:57;;;;;;;3.88;1.23;;;;;;;;;;6307834;22;20167;-71
2022/08/01 12:21:22;;;;;;;2.20;0.90;;;;;;;;;;6307732;22;20163;-71
2022/08/01 12:23:59;;;;;;;2.70;0.67;;;;;;;;;;6306221;22;20360;-71
2022/08/01 12:26:38;;;;;;;5.38;1.02;;;;;;;;;;6280636;22;20492;-72
2022/08/01 12:29:03;;;;;;;4.07;0.82;;;;;;;;;;6308045;22;20277;-70
2022/08/01 12:31:32;;;;;;;1.17;0.63;;;;;;;;;;6307078;22;20165;-70
2022/08/01 12:33:57;;;;;;;4.45;0.80;;;;;;;;;;6307909;22;20357;-70
2022/08/01 12:36:29;;;;;;;1.77;0.80;;;;;;;;;;6307623;22;20148;-71
2022/08/01 12:38:56;;;;;;;4.05;0.85;;;;;;;;;;6307451;22;20388;-72
2022/08/01 12:41:21;;;;;;;3.55;0.70;;;;;;;;;;6278435;22;20179;-71
2022/08/01 12:43:47;;;;;;;4.03;0.82;;;;;;;;;;6307057;22;20168;-70
2022/08/01 12:46:15;;;;;;;4.38;0.70;;;;;;;;;;6307203;22;20143;-71
2022/08/01 12:48:43;;;;;;;1.75;0.50;;;;;;;;;;6306315;22;20696;-71
2022/08/01 12:51:09;;;;;;;3.30;0.57;;;;;;;;;;6306767;22;20164;-71
2022/08/01 12:53:35;;;;;;;2.15;0.40;;;;;;;;;;6278296;22;20507;-70
2022/08/01 12:56:00;;;;;;;1.67;0.60;;;;;;;;;;6305776;22;20148;-70
2022/08/01 12:58:32;;;;;;;1.95;0.70;;;;;;;;;;6306253;22;20144;-70
2022/08/01 13:01:10;;;;;;;2.78;0.60;;;;;;;;;;6304260;22;20163;-70
2022/08/01 13:03:35;;;;;;;1.77;0.60;;;;;;;;;;6305420;22;20143;-72
2022/08/01 13:06:00;;;;;;;1.57;0.70;;;;;;;;;;6307241;22;20158;-71
2022/08/01 13:08:28;;;;;;;2.58;0.85;;;;;;;;;;6305109;22;20240;-71
2022/08/01 13:11:00;;;;;;;4.22;0.50;;;;;;;;;;6305147;22;20163;-73
2022/08/01 13:13:36;;;;;;;3.38;0.70;;;;;;;;;;6278152;22;20146;-71
2022/08/01 13:16:05;;;;;;;1.45;0.52;;;;;;;;;;6305251;22;20214;-70
2022/08/01 13:18:32;;;;;;;3.17;0.80;;;;;;;;;;6304874;22;20171;-71
2022/08/01 13:21:14;;;;;;;1.65;0.70;;;;;;;;;;6305095;22;20221;-71
2022/08/01 13:23:40;;;;;;;2.65;0.80;;;;;;;;;;6306112;22;20182;-71
2022/08/01 13:26:05;;;;;;;1.92;0.77;;;;;;;;;;6304503;22;20544;-71
2022/08/01 13:28:31;;;;;;;2.47;0.77;;;;;;;;;;6304366;22;20250;-71
2022/08/01 13:31:02;;;;;;;2.47;0.80;;;;;;;;;;6304824;22;20463;-71
2022/08/01 13:33:28;;;;;;;2.35;0.60;;;;;;;;;;6306150;22;20148;-70
2022/08/01 13:35:55;;;;;;;2.33;0.90;;;;;;;;;;6304138;22;20186;-70
2022/08/01 13:39:39;;;;;;;4.65;0.68;;;;;;;;;;6304414;22;20668;-71
2022/08/01 13:41:05;;;;;;;2.72;0.70;;;;;;;;;;6303448;22;20635;-70
2022/08/01 13:43:30;;;;;;;3.37;0.80;;;;;;;;;;6305587;22;20181;-71
2022/08/01 13:45:57;;;;;;;3.40;0.85;;;;;;;;;;6304193;22;20456;-71
2022/08/01 13:48:22;;;;;;;1.40;0.60;;;;;;;;;;6305060;22;20215;-71
2022/08/01 13:50:47;;;;;;;2.13;0.60;;;;;;;;;;6302873;22;20160;-71
2022/08/01 13:53:13;;;;;;;2.20;0.83;;;;;;;;;;6304338;22;20368;-71
2022/08/01 13:55:38;;;;;;;2.47;0.67;;;;;;;;;;6304092;22;20518;-71
2022/08/01 13:58:03;;;;;;;2.43;0.80;;;;;;;;;;6300815;22;20147;-73
2022/08/01 14:00:28;;;;;;;2.78;0.93;;;;;;;;;;6276577;22;20562;-72
2022/08/01 14:02:54;;;;;;;3.03;0.83;;;;;;;;;;6303688;22;20500;-73
2022/08/01 14:05:19;;;;;;;2.63;0.87;;;;;;;;;;6305652;22;20148;-72
2022/08/01 14:07:44;;;;;;;3.10;1.00;;;;;;;;;;6303830;22;20250;-72
2022/08/01 14:10:09;;;;;;;2.27;0.70;;;;;;;;;;6305482;22;20163;-72
2022/08/01 14:12:34;;;;;;;3.20;0.70;;;;;;;;;;6304440;22;20353;-73
2022/08/01 14:15:00;;;;;;;1.93;0.60;;;;;;;;;;6304900;22;20365;-73
2022/08/01 14:17:25;;;;;;;2.33;0.90;;;;;;;;;;6304848;22;20147;-73
2022/08/01 14:19:50;;;;;;;1.88;1.15;;;;;;;;;;6303670;22;20361;-73
2022/08/01 14:22:15;;;;;;;2.20;0.80;;;;;;;;;;6304653;22;20598;-73
2022/08/01 14:24:40;;;;;;;4.03;1.80;;;;;;;;;;6304389;22;20166;-73
2022/08/01 14:27:06;;;;;;;2.53;1.00;;;;;;;;;;6304797;22;20488;-73
2022/08/01 14:29:31;;;;;;;2.27;0.90;;;;;;;;;;6304408;22;20254;-73
2022/08/01 14:31:56;;;;;;;2.30;0.80;;;;;;;;;;6303502;22;20460;-73
2022/08/01 14:34:21;;;;;;;2.80;0.70;;;;;;;;;;6304764;22;20367;-73
2022/08/01 14:36:47;;;;;;;3.70;0.80;;;;;;;;;;6304279;22;20144;-73